Temp: 12.1°C   Baro: 998.0mb
  Wind: 4.9mph   Dir: W (264°)
  Rain: 4.6mm (0.0mm/hr)
  Solar: 54W/m2  Hum: 92%
 
Bath Spa Weather Historical Data
 
Daily Summary for February 28, 2020 Units:  Metric    English   Both
Next Day »
Daily Weekly Monthly Yearly Custom
  Current: High: Low: Average:
Temperature: 12.1 °C 12.1 °C -17.8 °C 5.5 °C
Dew Point: 10.8 °C 10.8 °C -17.8 °C 4.1 °C
Humidity: 92% 94% % 88%
Wind Speed: 20.9km/h 20.9km/h 0.0km/h 6.3km/h
Wind Gust: 27.4km/h 29.0km/h - -
Wind directionSW - - WSW
Pressure: 997.9 hPa 1014.8 hPa 0.0 hPa -
Precipitation: 4.6 mm      
Historical Graphs
 
 
Tabular Data for February 28, 2020
Time Temperature Dew Point Pressure Wind direction Wind Speed Wind Gust Humidity Rainfall Rate (Hourly) solar
00:00 1.1 °C -0.8 °C 1014.8 hPa NW 1.4 km/h 6.4 km/h 87% 0.0 mm 0.00 W/m2
00:05 1.2 °C -0.7 °C 1014.8 hPa Calm     87% 0.0 mm 0.00 W/m2
00:10 1.2 °C -0.7 °C 1014.4 hPa Calm   3.2 km/h 87% 0.0 mm 0.00 W/m2
00:15 1.2 °C -0.7 °C 1014.8 hPa NW 1.4 km/h 3.2 km/h 87% 0.0 mm 0.00 W/m2
00:20 1.2 °C -0.7 °C 1014.4 hPa Calm   1.6 km/h 87% 0.0 mm 0.00 W/m2
00:25 1.2 °C -0.6 °C 1014.4 hPa Calm   6.4 km/h 88% 0.0 mm 0.00 W/m2
00:30 1.3 °C -0.5 °C 1014.4 hPa WSW 3.2 km/h 4.8 km/h 88% 0.0 mm 0.00 W/m2
00:35 1.4 °C -0.4 °C 1014.4 hPa Calm   3.2 km/h 88% 0.0 mm 0.00 W/m2
00:40 1.4 °C -0.4 °C 1014.4 hPa West 1.4 km/h 4.8 km/h 88% 0.0 mm 0.00 W/m2
00:45 1.5 °C -0.3 °C 1014.4 hPa West 1.4 km/h 3.2 km/h 88% 0.0 mm 0.00 W/m2
00:50 1.5 °C -0.3 °C 1014.4 hPa West 1.4 km/h 3.2 km/h 88% 0.0 mm 0.00 W/m2
00:55 1.5 °C -0.3 °C 1014.4 hPa Calm     88% 0.0 mm 0.00 W/m2
01:00 1.5 °C -0.3 °C 1014.4 hPa Calm     88% 0.0 mm 0.00 W/m2
01:05 1.4 °C -0.4 °C 1014.4 hPa West 1.4 km/h 3.2 km/h 88% 0.0 mm 0.00 W/m2
01:10 1.5 °C -0.3 °C 1014.4 hPa Calm   1.6 km/h 88% 0.0 mm 0.00 W/m2
01:15 1.5 °C -0.3 °C 1014.4 hPa Calm     88% 0.0 mm 0.00 W/m2
01:20 1.5 °C -0.1 °C 1014.4 hPa Calm   3.2 km/h 89% 0.0 mm 0.00 W/m2
01:25 1.5 °C -0.1 °C 1014.4 hPa West 1.4 km/h 1.6 km/h 89% 0.0 mm 0.00 W/m2
01:30 1.5 °C -0.1 °C 1014.4 hPa West 1.4 km/h 1.6 km/h 89% 0.0 mm 0.00 W/m2
01:35 1.5 °C -0.1 °C 1014.4 hPa Calm   1.6 km/h 89% 0.0 mm 0.00 W/m2
01:40 1.4 °C -0.2 °C 1014.4 hPa Calm     89% 0.0 mm 0.00 W/m2
01:45 1.4 °C -0.2 °C 1014.4 hPa West 3.2 km/h 3.2 km/h 89% 0.0 mm 0.00 W/m2
01:50 1.5 °C -0.1 °C 1014.4 hPa West 1.4 km/h 3.2 km/h 89% 0.0 mm 0.00 W/m2
01:55 1.5 °C -0.1 °C 1014.4 hPa West 3.2 km/h 4.8 km/h 89% 0.0 mm 0.00 W/m2
02:00 1.5 °C -0.1 °C 1014.1 hPa West 1.4 km/h 3.2 km/h 89% 0.0 mm 0.00 W/m2
02:05 1.6 °C 0.0 °C 1014.1 hPa Calm   1.6 km/h 89% 0.0 mm 0.00 W/m2
02:10 1.6 °C 0.0 °C 1014.1 hPa West 1.4 km/h 3.2 km/h 89% 0.0 mm 0.00 W/m2
02:15 1.6 °C 0.0 °C 1013.8 hPa West 3.2 km/h 4.8 km/h 89% 0.0 mm 0.00 W/m2
02:20 1.6 °C 0.0 °C 1013.8 hPa West 1.4 km/h 3.2 km/h 89% 0.0 mm 0.00 W/m2
02:25 1.6 °C 0.0 °C 1013.8 hPa West 1.4 km/h 4.8 km/h 89% 0.0 mm 0.00 W/m2
02:30 1.8 °C 0.2 °C 1013.8 hPa West 1.4 km/h 3.2 km/h 89% 0.0 mm 0.00 W/m2
02:35 1.9 °C 0.3 °C 1013.8 hPa WNW 3.2 km/h 4.8 km/h 89% 0.0 mm 0.00 W/m2
02:40 2.1 °C 0.6 °C 1013.4 hPa WNW 4.7 km/h 4.8 km/h 90% 0.0 mm 0.00 W/m2
02:45 2.1 °C 0.5 °C 1013.4 hPa WNW 1.4 km/h 3.2 km/h 89% 0.0 mm 0.00 W/m2
02:50 2.1 °C 0.5 °C 1013.4 hPa WNW 1.4 km/h 3.2 km/h 89% 0.0 mm 0.00 W/m2
02:55 2.1 °C 0.5 °C 1013.4 hPa Calm     89% 0.0 mm 0.00 W/m2
11:40 -17.8 °C -17.8 °C 0.0 hPa Calm   -1607.4 km/h % 0.0 mm W/m2
12:02 -17.8 °C -17.8 °C 0.0 hPa Calm   -1607.4 km/h % 0.0 mm W/m2
12:07 8.6 °C 7.5 °C 1000.2 hPa South 6.4 km/h 11.3 km/h 93% 1.0 mm 39.00 W/m2
12:10 8.7 °C 7.6 °C 1000.2 hPa South 4.7 km/h 8.0 km/h 93% 1.0 mm 46.00 W/m2
12:16 8.9 °C 7.8 °C 999.9 hPa South 16.3 km/h 14.5 km/h 93% 1.0 mm 44.00 W/m2
12:21 9.1 °C 8.0 °C 999.9 hPa South 11.1 km/h 16.1 km/h 93% 0.8 mm 62.00 W/m2
12:25 9.2 °C 8.3 °C 999.9 hPa SSW 9.7 km/h 20.9 km/h 94% 0.8 mm 47.00 W/m2
12:30 9.4 °C 8.3 °C 999.5 hPa South 6.4 km/h 12.9 km/h 93% 0.8 mm 37.00 W/m2
12:35 9.7 °C 8.8 °C 999.5 hPa South 6.4 km/h 12.9 km/h 94% 0.5 mm 39.00 W/m2
12:40 10.1 °C 9.2 °C 999.5 hPa SW 4.7 km/h 14.5 km/h 94% 0.5 mm 25.00 W/m2
12:45 10.4 °C 9.5 °C 999.2 hPa SW 6.4 km/h 14.5 km/h 94% 0.5 mm 35.00 W/m2
12:50 10.8 °C 9.9 °C 999.2 hPa West 14.3 km/h 20.9 km/h 94% 0.5 mm 30.00 W/m2
12:55 11.2 °C 10.3 °C 999.2 hPa West 11.1 km/h 25.7 km/h 94% 0.3 mm 39.00 W/m2
13:00 11.3 °C 10.4 °C 998.9 hPa SW 14.3 km/h 17.7 km/h 94% 0.3 mm 33.00 W/m2
13:05 11.4 °C 10.5 °C 998.9 hPa West 14.3 km/h 25.7 km/h 94% 0.3 mm 32.00 W/m2
13:10 11.5 °C 10.4 °C 998.9 hPa West 13.0 km/h 20.9 km/h 93% 0.3 mm 42.00 W/m2
13:15 11.6 °C 10.5 °C 998.5 hPa WSW 13.0 km/h 19.3 km/h 93% 0.3 mm 39.00 W/m2
13:20 11.7 °C 10.6 °C 998.5 hPa SW 9.7 km/h 20.9 km/h 93% 0.3 mm 53.00 W/m2
13:25 11.7 °C 10.6 °C 998.5 hPa WSW 20.9 km/h 20.9 km/h 93% 0.3 mm 42.00 W/m2
13:30 11.7 °C 10.6 °C 998.5 hPa SSW 11.1 km/h 17.7 km/h 93% 0.3 mm 40.00 W/m2
13:35 11.8 °C 10.7 °C 998.5 hPa SW 11.1 km/h 17.7 km/h 93% 0.3 mm 40.00 W/m2
13:40 11.9 °C 10.8 °C 998.5 hPa West 16.3 km/h 22.5 km/h 93% 0.3 mm 53.00 W/m2
13:45 11.9 °C 10.6 °C 998.2 hPa WSW 13.0 km/h 17.7 km/h 92% 0.0 mm 40.00 W/m2
13:50 11.9 °C 10.6 °C 998.2 hPa WSW 4.7 km/h 16.1 km/h 92% 0.0 mm 44.00 W/m2
13:55 11.9 °C 10.6 °C 997.9 hPa SW 13.0 km/h 22.5 km/h 92% 0.0 mm 39.00 W/m2
14:00 11.9 °C 10.6 °C 997.9 hPa West 16.3 km/h 19.3 km/h 92% 0.0 mm 39.00 W/m2
14:05 11.9 °C 10.6 °C 997.9 hPa WSW 20.9 km/h 22.5 km/h 92% 0.0 mm 42.00 W/m2
14:10 12.0 °C 10.7 °C 998.2 hPa West 9.7 km/h 24.1 km/h 92% 0.0 mm 37.00 W/m2
14:15 12.0 °C 10.7 °C 998.2 hPa West 17.7 km/h 24.1 km/h 92% 0.0 mm 33.00 W/m2
14:20 12.0 °C 10.7 °C 997.9 hPa West 11.1 km/h 17.7 km/h 92% 0.0 mm 69.00 W/m2
14:25 12.0 °C 10.7 °C 998.2 hPa SW 11.1 km/h 24.1 km/h 92% 0.0 mm 56.00 W/m2
14:30 12.0 °C 10.7 °C 997.9 hPa West 7.9 km/h 24.1 km/h 92% 0.0 mm 62.00 W/m2
14:35 12.0 °C 10.7 °C 997.9 hPa West 14.3 km/h 19.3 km/h 92% 0.0 mm 63.00 W/m2
14:40 11.9 °C 10.6 °C 997.9 hPa SW 14.3 km/h 29.0 km/h 92% 0.0 mm 63.00 W/m2
14:45 12.1 °C 10.8 °C 998.2 hPa West 16.3 km/h 22.5 km/h 92% 0.0 mm 44.00 W/m2
14:50 12.1 °C 10.8 °C 997.9 hPa SW 20.9 km/h 27.4 km/h 92% 0.0 mm 56.00 W/m2